Portada
METAR-TAF:

METAR-TAF

Aeroports :

Khon Kaen, Tailàndia

latitud: 16-26N, longitud: 102-50E, altitud: 165 m

Observació

L'informe es va fer fa 44 minuts, a les 20:00 UTC
Vent 4 kt del Nord
Temperatura 22°C
Humitat 94%
Pressió 1015 hPa
Visibilitat: 9000 m

METAR: VTUK 132000Z 36004KT 9000 NSC 22/21 Q1015 NOSIG

Hora: 03:44 (20:44 UTC)

Pronòstic

L'informe es va fer fa 3 hores i 44 minuts, a les 17:00 UTC
Pronòstic vàlid del 13 a les 18 UTC al 14 a les 18 UTC
Vent 4 kt del Est
Visibilitat: 7000 m
Escasses núvols a una alçada de 3000 ft
Evolucionant progressivament
l' 13 a les 21 UTC al 13 a les 23 UTC
Visibilitat: 5000 m
boirina
Evolucionant progressivament
l' 14 a les 01 UTC al 14 a les 03 UTC
Visibilitat: 9000 m

TAF: VTUK 131700Z 1318/1418 08004KT 7000 FEW030 BECMG 1321/1323 5000 BR BECMG 1401/1403 9000 NSW

Observacions i pronòstics meteorològics de més de 4000 aeroports (METAR i TAF).

Les estacions disponibles són els punts grocs i vermells al mapa.

Posi el ratolí al punt desitjat per veure el nom de l'estació.

Feu clic per veure les observacions i els pronòstics meteorològics.

Per canviar el mapa: feu clic els botons verds amb una creu de color negre per apropar; al botó verd amb un guió per allunyar la imatge; o en les fletxes verdes per a mapes adjacents.


METAR-TAF: